METAR Switzerland - 12 Dec 2017 - 2348 UTC - RocketRoute WX - rrwx.com
LSMA 122250Z AUTO 26003KT 230V300 3900NDV BKN006 BKN017 00/M01 Q1019 RMK LFSB 122330Z AUTO VRB03KT CAVOK M02/M03 Q1019 TEMPO 4000 BR LSZB 122320Z AUTO 12003KT CAVOK M03/M04 Q1019 LSZC 122320Z AUTO 20004KT CAVOK M01/M02 Q1019 LSMD 122250Z AUTO VRB01KT 9999NDV NCD M01/M02 Q1019 RMK LSME 122250Z AUTO 26003KT 9999NDV FEW053 M01/M02 Q1019 RMK LSZR 122320Z AUTO VRB02KT 9999 NCD 00/M03 Q1019 LSGG 122320Z AUTO 24003KT 9000 R05/0375D R23/P2000N FZFG NCD M03/M03 Q1020 REFZDZ BECMG CAVOK LSZG 122320Z AUTO 24002KT CAVOK M03/M03 Q1019 LSGC 122320Z AUTO 28001KT CAVOK M07/M08 Q1017 LSZL 122250Z AUTO VRB02KT 0450NDV R08/0375V0600U R26/0500V0700N FZFG NCD M02/M02 Q1016 RMK LSZA 122320Z AUTO VRB03KT 0150 FZFG VV001 00/00 Q1015 LSMM 122250Z AUTO 10003KT 5000NDV BR FEW004 SCT027 BKN053 M01/M01 Q1019 RMK LSMP 122250Z AUTO VRB01KT 9000NDV NCD M01/M02 Q1019 RMK LSZS 122320Z AUTO VRB01KT 9999 NCD M08/M09 Q1012 LSGS 122320Z AUTO 07002KT 9999 OVC026 00/M02 Q1020 LSZH 122320Z 00000KT 7000 MIFG NSC M02/M03 Q1019 R88/29//// NOSIG

RocketRoute WX - rrwx.com weather for pilots